createdAt,value
2019-04-19T00:02:25.895Z,72.70
2019-04-19T00:06:42.694Z,73.00
2019-04-19T00:10:58.034Z,73.70
2019-04-19T00:15:01.467Z,74.40
2019-04-19T00:19:31.497Z,75.30
2019-04-19T00:23:31.134Z,75.40
2019-04-19T00:27:39.590Z,75.60
2019-04-19T00:31:59.202Z,76.00
2019-04-19T00:35:53.851Z,76.20
2019-04-19T00:40:27.835Z,76.00
2019-04-19T00:44:51.715Z,76.40
2019-04-19T00:48:58.511Z,76.60
2019-04-19T00:53:07.899Z,76.80
2019-04-19T00:57:14.715Z,76.60
2019-04-19T01:01:21.567Z,76.60
2019-04-19T01:05:29.180Z,76.80
2019-04-19T01:09:48.601Z,77.80
2019-04-19T01:14:01.350Z,76.90
2019-04-19T01:18:15.495Z,76.80
2019-04-19T01:22:15.192Z,77.10
2019-04-19T01:26:19.983Z,77.40
2019-04-19T01:30:34.902Z,77.20
2019-04-19T01:34:39.870Z,76.50
2019-04-19T01:38:58.099Z,77.50
2019-04-19T01:43:22.364Z,77.70
2019-04-19T01:47:51.526Z,77.70
2019-04-19T01:52:37.055Z,78.10
2019-04-19T01:56:20.434Z,78.30
2019-04-19T02:00:38.083Z,78.40
2019-04-19T02:04:41.297Z,78.40
2019-04-19T02:08:54.155Z,78.40
2019-04-19T02:13:12.087Z,78.60
2019-04-19T02:17:14.594Z,78.50
2019-04-19T02:21:27.691Z,78.70
2019-04-19T02:25:33.905Z,78.80
2019-04-19T02:29:49.823Z,79.10
2019-04-19T02:34:32.052Z,79.20
2019-04-19T02:38:40.099Z,79.40
2019-04-19T02:42:44.551Z,79.60
2019-04-19T02:47:00.228Z,79.80
2019-04-19T02:55:14.555Z,80.10
2019-04-19T02:59:56.977Z,80.30
2019-04-19T03:04:06.755Z,79.90
2019-04-19T03:07:40.618Z,79.90
2019-04-19T03:12:00.877Z,80.00
2019-04-19T03:16:29.552Z,80.70
2019-04-19T03:20:28.726Z,80.70
2019-04-19T03:24:42.228Z,81.10
2019-04-19T03:28:40.509Z,81.20
2019-04-19T03:33:11.362Z,81.40
2019-04-19T03:37:16.425Z,81.60
2019-04-19T03:41:40.466Z,81.60
2019-04-19T03:45:35.349Z,81.60
2019-04-19T03:49:50.626Z,81.60
2019-04-19T03:54:11.655Z,81.80
2019-04-19T03:57:58.195Z,81.70
2019-04-19T04:02:02.954Z,81.60
2019-04-19T04:06:19.617Z,81.70
2019-04-19T04:10:37.684Z,81.60
2019-04-19T04:15:02.714Z,81.90
2019-04-19T04:18:59.778Z,82.00
2019-04-19T04:23:15.476Z,81.90
2019-04-19T04:27:31.585Z,82.00
2019-04-19T04:31:44.619Z,82.30
2019-04-19T04:35:53.193Z,82.10
2019-04-19T04:39:51.403Z,82.00
2019-04-19T04:44:21.385Z,82.10
2019-04-19T04:48:43.481Z,82.80
2019-04-19T04:52:43.918Z,82.70
2019-04-19T04:57:17.178Z,82.00
2019-04-19T05:01:33.260Z,82.00
2019-04-19T05:05:49.665Z,82.40
2019-04-19T05:09:59.215Z,82.00
2019-04-19T05:14:11.309Z,80.20
2019-04-19T05:18:26.260Z,78.10
2019-04-19T05:22:31.662Z,76.40
2019-04-19T05:30:46.903Z,73.70
2019-04-19T05:35:06.982Z,73.60
2019-04-19T05:39:26.370Z,73.50
2019-04-19T05:43:54.057Z,73.40
2019-04-19T05:47:40.629Z,73.20
2019-04-19T05:51:55.188Z,73.00
2019-04-19T05:55:50.306Z,72.90
2019-04-19T06:00:16.097Z,72.70
2019-04-19T06:04:26.342Z,72.40
2019-04-19T06:08:26.493Z,72.20
2019-04-19T06:12:35.520Z,72.90
2019-04-19T06:17:11.307Z,71.60
2019-04-19T06:21:27.690Z,71.00
2019-04-19T06:25:46.115Z,70.50
2019-04-19T06:29:58.879Z,69.80
2019-04-19T06:34:04.723Z,69.20
2019-04-19T06:37:54.296Z,68.30
2019-04-19T06:42:07.738Z,68.10
2019-04-19T06:46:29.101Z,67.60
2019-04-19T06:50:34.053Z,66.40
2019-04-19T06:54:38.835Z,64.40
2019-04-19T06:58:55.821Z,63.50
2019-04-19T07:02:56.247Z,62.60
2019-04-19T07:07:23.550Z,61.80
2019-04-19T07:11:43.110Z,61.00
2019-04-19T07:15:49.989Z,60.10
2019-04-19T07:19:56.226Z,59.50
2019-04-19T07:24:14.956Z,58.80
2019-04-19T07:28:23.986Z,57.90
2019-04-19T07:32:37.226Z,57.30
2019-04-19T07:36:57.684Z,56.60
2019-04-19T07:41:13.681Z,56.30
2019-04-19T07:45:10.769Z,55.60
2019-04-19T07:49:17.385Z,54.90
2019-04-19T07:53:32.043Z,54.00
2019-04-19T07:58:16.823Z,53.50
2019-04-19T08:06:28.032Z,51.50
2019-04-19T08:10:42.269Z,49.30
2019-04-19T08:14:48.014Z,46.80
2019-04-19T08:31:07.871Z,43.50
2019-04-19T08:35:17.324Z,42.20
2019-04-19T08:39:46.140Z,42.10
2019-04-19T08:43:50.921Z,40.90
2019-04-19T08:48:11.978Z,40.70
2019-04-19T08:52:25.147Z,39.50
2019-04-19T08:56:42.176Z,39.90
2019-04-19T09:01:03.515Z,40.00
2019-04-19T09:05:09.334Z,40.00
2019-04-19T09:09:27.997Z,38.30
2019-04-19T09:13:35.410Z,38.30
2019-04-19T09:18:09.262Z,38.60
2019-04-19T09:21:50.502Z,38.60
2019-04-19T09:26:03.084Z,36.30
2019-04-19T09:30:22.286Z,37.30
2019-04-19T09:34:16.829Z,35.90
2019-04-19T09:38:39.733Z,36.70
2019-04-19T09:42:46.395Z,36.20
2019-04-19T09:46:44.835Z,35.30
2019-04-19T09:51:07.488Z,34.70
2019-04-19T09:55:26.813Z,35.40
2019-04-19T09:59:24.054Z,35.70
2019-04-19T10:03:34.707Z,34.00
2019-04-19T10:07:36.790Z,33.70
2019-04-19T10:11:46.474Z,33.20
2019-04-19T10:16:00.629Z,30.90
2019-04-19T10:20:10.932Z,29.80
2019-04-19T10:24:22.604Z,29.70
2019-04-19T10:28:30.655Z,29.80
2019-04-19T10:32:40.311Z,30.00
2019-04-19T10:36:51.310Z,29.40
2019-04-19T10:41:01.775Z,29.50
2019-04-19T10:45:12.217Z,29.40
2019-04-19T10:49:32.321Z,29.00
2019-04-19T10:53:32.466Z,28.90
2019-04-19T10:57:43.105Z,28.10
2019-04-19T11:01:52.216Z,27.10
2019-04-19T11:06:01.138Z,27.90
2019-04-19T11:10:11.691Z,27.40
2019-04-19T11:14:21.845Z,27.60
2019-04-19T11:18:31.777Z,27.30
2019-04-19T11:22:41.784Z,24.60
2019-04-19T11:26:50.898Z,25.90
2019-04-19T11:31:08.910Z,24.90
2019-04-19T11:35:19.234Z,24.90
2019-04-19T11:39:28.333Z,25.10
2019-04-19T11:43:37.773Z,24.10
2019-04-19T11:47:47.369Z,25.20
2019-04-19T11:51:56.478Z,24.80
2019-04-19T11:56:28.628Z,24.30
2019-04-19T12:00:40.378Z,24.30
2019-04-19T12:04:50.296Z,24.80
2019-04-19T12:09:00.456Z,21.90
2019-04-19T12:13:09.515Z,22.30
2019-04-19T12:17:18.521Z,24.50
2019-04-19T12:21:27.581Z,23.80
2019-04-19T12:25:37.558Z,24.10
2019-04-19T12:29:49.549Z,24.30
2019-04-19T12:33:57.620Z,23.50
2019-04-19T12:38:08.007Z,23.80
2019-04-19T12:42:31.698Z,22.90
2019-04-19T12:46:41.359Z,24.20
2019-04-19T12:50:51.604Z,22.90
2019-04-19T12:55:01.937Z,23.30
2019-04-19T12:59:11.611Z,24.20
2019-04-19T13:03:39.552Z,24.90
2019-04-19T13:07:49.313Z,24.40
2019-04-19T13:11:58.948Z,24.20
2019-04-19T13:16:08.343Z,23.80
2019-04-19T13:20:24.207Z,22.30
2019-04-19T13:24:28.725Z,23.80
2019-04-19T13:28:39.483Z,24.10
2019-04-19T13:32:49.445Z,23.40
2019-04-19T13:37:23.440Z,24.40
2019-04-19T13:41:43.054Z,24.90
2019-04-19T13:45:52.691Z,24.80
2019-04-19T13:50:14.548Z,25.20
2019-04-19T13:54:12.554Z,24.10
2019-04-19T13:58:22.050Z,24.40
2019-04-19T14:02:31.438Z,24.80
2019-04-19T14:06:40.667Z,25.10
2019-04-19T14:10:50.898Z,25.10
2019-04-19T14:15:00.497Z,25.00
2019-04-19T14:19:11.395Z,26.50
2019-04-19T14:23:21.665Z,26.20
2019-04-19T14:27:31.162Z,26.90
2019-04-19T14:31:40.143Z,25.60
2019-04-19T14:35:50.167Z,26.30
2019-04-19T14:40:00.501Z,26.00
2019-04-19T14:44:09.576Z,26.80
2019-04-19T14:48:25.823Z,26.00
2019-04-19T14:52:30.125Z,26.20
2019-04-19T14:56:39.268Z,26.40
2019-04-19T15:01:08.768Z,26.00
2019-04-19T15:05:31.932Z,27.10
2019-04-19T15:09:41.667Z,26.30
2019-04-19T15:13:52.623Z,26.30
2019-04-19T15:18:02.157Z,26.30
2019-04-19T15:22:12.285Z,26.40
2019-04-19T15:26:22.600Z,26.90
2019-04-19T15:30:32.883Z,25.30
2019-04-19T15:34:43.469Z,25.50
2019-04-19T15:38:53.383Z,25.70
2019-04-19T15:43:03.182Z,26.10
2019-04-19T15:47:12.661Z,25.40
2019-04-19T15:51:27.117Z,25.90
2019-04-19T15:55:32.324Z,26.00
2019-04-19T15:59:41.338Z,25.60
2019-04-19T16:03:54.293Z,25.90
2019-04-19T16:08:12.459Z,25.80
2019-04-19T16:12:31.667Z,25.70
2019-04-19T16:16:40.609Z,26.00
2019-04-19T16:20:50.853Z,26.10
2019-04-19T16:25:01.095Z,25.90
2019-04-19T16:29:17.073Z,26.50
2019-04-19T16:33:22.019Z,26.50
2019-04-19T16:37:31.164Z,26.50
2019-04-19T16:41:40.695Z,26.00
2019-04-19T16:46:01.468Z,26.40
2019-04-19T16:50:00.577Z,26.40
2019-04-19T16:54:10.239Z,26.90
2019-04-19T16:58:20.783Z,27.10
2019-04-19T17:02:31.076Z,27.30
2019-04-19T17:06:40.549Z,26.60
2019-04-19T17:10:49.519Z,26.40
2019-04-19T17:15:08.595Z,25.30
2019-04-19T17:19:26.669Z,24.30
2019-04-19T17:23:37.027Z,23.10
2019-04-19T17:27:47.130Z,22.30
2019-04-19T17:31:56.723Z,22.40
2019-04-19T17:36:06.122Z,22.10
2019-04-19T17:40:16.240Z,21.90
2019-04-19T17:44:25.858Z,21.40
2019-04-19T17:48:34.742Z,21.40
2019-04-19T17:52:44.395Z,21.60
2019-04-19T17:56:53.385Z,22.60
2019-04-19T18:01:02.632Z,24.30
2019-04-19T18:05:11.894Z,26.20
2019-04-19T18:09:22.838Z,27.30
2019-04-19T18:13:31.443Z,28.20
2019-04-19T18:17:40.343Z,29.00
2019-04-19T18:21:50.082Z,30.00
2019-04-19T18:25:59.212Z,31.00
2019-04-19T18:30:11.759Z,32.30
2019-04-19T18:34:39.910Z,33.10
2019-04-19T18:38:50.423Z,34.00
2019-04-19T18:43:16.244Z,34.80
2019-04-19T18:47:09.105Z,35.80
2019-04-19T18:51:25.849Z,36.60
2019-04-19T18:55:36.255Z,37.30
2019-04-19T18:59:40.536Z,37.90
2019-04-19T19:03:50.105Z,38.70
2019-04-19T19:08:03.547Z,39.70
2019-04-19T19:12:13.319Z,40.80
2019-04-19T19:16:25.337Z,41.40
2019-04-19T19:20:36.738Z,42.50
2019-04-19T19:25:03.125Z,43.50
2019-04-19T19:28:56.069Z,44.50
2019-04-19T19:33:14.360Z,45.10
2019-04-19T19:37:22.468Z,45.70
2019-04-19T19:42:18.631Z,46.40
2019-04-19T19:45:51.523Z,47.00
2019-04-19T19:50:17.900Z,47.60
2019-04-19T19:58:22.179Z,48.10
2019-04-19T20:02:36.918Z,48.40
2019-04-19T20:06:33.300Z,49.00
2019-04-19T20:10:45.889Z,49.80
2019-04-19T20:14:56.147Z,50.20
2019-04-19T20:19:06.734Z,50.60
2019-04-19T20:23:21.578Z,50.80
2019-04-19T20:27:36.585Z,51.10
2019-04-19T20:31:40.882Z,51.50
2019-04-19T20:35:55.069Z,52.10
2019-04-19T20:40:06.183Z,52.30
2019-04-19T20:44:29.056Z,52.30
2019-04-19T20:48:25.919Z,52.50
2019-04-19T20:52:45.373Z,52.80
2019-04-19T20:57:27.535Z,53.10
2019-04-19T21:01:14.870Z,53.20
2019-04-19T21:05:27.229Z,53.60
2019-04-19T21:09:37.312Z,54.10
2019-04-19T21:13:50.600Z,54.20
2019-04-19T21:17:56.046Z,54.60
2019-04-19T21:22:06.438Z,54.90
2019-04-19T21:26:21.510Z,54.90
2019-04-19T21:30:27.055Z,56.00
2019-04-19T21:34:38.170Z,55.40
2019-04-19T21:38:53.392Z,55.30
2019-04-19T21:42:59.682Z,55.60
2019-04-19T21:47:10.908Z,56.00
2019-04-19T21:51:25.627Z,56.20
2019-04-19T21:55:33.928Z,56.30
2019-04-19T21:59:40.908Z,56.40
2019-04-19T22:03:55.224Z,56.60
2019-04-19T22:08:00.303Z,57.70
2019-04-19T22:12:10.258Z,57.90
2019-04-19T22:16:21.594Z,58.20
2019-04-19T22:20:30.206Z,58.40
2019-04-19T22:24:39.871Z,58.70
2019-04-19T22:28:47.945Z,58.90
2019-04-19T22:33:00.384Z,59.00
2019-04-19T22:37:08.960Z,59.10
2019-04-19T22:41:21.062Z,59.30
2019-04-19T22:45:30.637Z,59.60
2019-04-19T22:49:43.694Z,59.90
2019-04-19T22:53:50.571Z,59.80
2019-04-19T22:58:01.346Z,60.20
2019-04-19T23:02:16.562Z,60.10
2019-04-19T23:06:28.097Z,60.50
2019-04-19T23:10:45.340Z,60.60
2019-04-19T23:14:50.581Z,60.70
2019-04-19T23:19:03.658Z,61.20
2019-04-19T23:23:18.578Z,62.20
2019-04-19T23:27:31.307Z,61.30
2019-04-19T23:31:28.433Z,61.30
2019-04-19T23:35:39.812Z,62.20
2019-04-19T23:39:52.602Z,62.80
2019-04-19T23:43:55.956Z,63.10
2019-04-19T23:48:04.611Z,64.40
2019-04-19T23:52:12.929Z,63.20
2019-04-19T23:56:30.614Z,63.50
